createdAt,value
2018-06-08T00:00:40.713Z,0
2018-06-08T00:01:41.485Z,0
2018-06-08T00:02:42.060Z,0
2018-06-08T00:03:42.634Z,0
2018-06-08T00:04:43.207Z,0
2018-06-08T00:05:43.780Z,0
2018-06-08T00:06:44.403Z,0
2018-06-08T00:07:44.978Z,0
2018-06-08T00:08:45.601Z,0
2018-06-08T00:09:46.175Z,0
2018-06-08T00:10:46.747Z,0
2018-06-08T00:11:47.320Z,0
2018-06-08T00:12:47.894Z,0
2018-06-08T00:13:48.468Z,0
2018-06-08T00:14:49.040Z,0
2018-06-08T00:15:49.615Z,0
2018-06-08T00:16:50.387Z,0
2018-06-08T00:17:50.962Z,0
2018-06-08T00:18:51.535Z,0
2018-06-08T00:19:52.108Z,0
2018-06-08T00:20:52.681Z,0
2018-06-08T00:21:53.254Z,0
2018-06-08T00:22:53.833Z,0
2018-06-08T00:23:54.452Z,0
2018-06-08T00:24:55.022Z,0
2018-06-08T00:25:55.597Z,0
2018-06-08T00:26:56.171Z,0
2018-06-08T00:27:56.893Z,0
2018-06-08T00:28:57.466Z,0
2018-06-08T00:29:58.040Z,0
2018-06-08T00:30:58.614Z,0
2018-06-08T00:31:59.187Z,0
2018-06-08T00:32:59.760Z,0
2018-06-08T00:34:00.337Z,0
2018-06-08T00:35:00.909Z,0
2018-06-08T00:36:01.533Z,0
2018-06-08T00:37:02.106Z,0
2018-06-08T00:38:02.679Z,0
2018-06-08T00:39:03.254Z,0
2018-06-08T00:40:03.826Z,0
2018-06-08T00:41:04.450Z,0
2018-06-08T00:42:05.022Z,0
2018-06-08T00:43:05.594Z,0
2018-06-08T00:44:06.167Z,0
2018-06-08T00:45:06.740Z,0
2018-06-08T00:46:07.316Z,0
2018-06-08T00:47:07.935Z,0
2018-06-08T00:48:08.511Z,0
2018-06-08T00:49:09.125Z,0
2018-06-08T00:50:09.696Z,0
2018-06-08T00:51:10.272Z,0
2018-06-08T00:52:10.845Z,0
2018-06-08T00:53:11.419Z,0
2018-06-08T00:54:11.991Z,0
2018-06-08T00:55:12.563Z,0
2018-06-08T00:56:13.142Z,0
2018-06-08T00:57:13.767Z,0
2018-06-08T00:58:14.341Z,0
2018-06-08T00:59:14.915Z,0
2018-06-08T01:00:15.535Z,0
2018-06-08T01:01:16.107Z,0
2018-06-08T01:02:16.679Z,0
2018-06-08T01:03:17.253Z,0
2018-06-08T01:04:17.875Z,0
2018-06-08T01:05:18.446Z,0
2018-06-08T01:06:19.021Z,0
2018-06-08T01:07:19.595Z,0
2018-06-08T01:08:20.167Z,0
2018-06-08T01:09:20.741Z,0
2018-06-08T01:10:21.313Z,0
2018-06-08T01:11:21.890Z,0
2018-06-08T01:12:22.551Z,0
2018-06-08T01:13:23.124Z,0
2018-06-08T01:14:23.699Z,0
2018-06-08T01:15:24.272Z,0
2018-06-08T01:16:24.845Z,0
2018-06-08T01:17:25.466Z,0
2018-06-08T01:18:26.074Z,0
2018-06-08T01:19:26.666Z,0
2018-06-08T01:20:27.280Z,0
2018-06-08T01:21:27.854Z,0
2018-06-08T01:22:28.428Z,0
2018-06-08T01:23:29.030Z,0
2018-06-08T01:24:29.574Z,0
2018-06-08T01:25:30.199Z,0
2018-06-08T01:26:30.771Z,0
2018-06-08T01:27:31.344Z,0
2018-06-08T01:28:31.916Z,0
2018-06-08T01:29:32.490Z,0
2018-06-08T01:30:33.066Z,0
2018-06-08T01:31:33.636Z,0
2018-06-08T01:32:34.210Z,0
2018-06-08T01:33:34.781Z,0
2018-06-08T01:34:35.406Z,0
2018-06-08T01:35:35.978Z,0
2018-06-08T01:36:36.552Z,0
2018-06-08T01:37:37.145Z,0
2018-06-08T01:38:37.749Z,0
2018-06-08T01:39:38.323Z,0
2018-06-08T01:40:38.898Z,0
2018-06-08T01:41:39.466Z,0
2018-06-08T01:42:40.043Z,0
2018-06-08T01:43:40.616Z,0
2018-06-08T01:44:41.189Z,0
2018-06-08T01:45:41.761Z,0
2018-06-08T01:46:42.333Z,0
2018-06-08T01:47:42.908Z,0
2018-06-08T01:48:43.482Z,0
2018-06-08T01:49:44.054Z,0
2018-06-08T01:50:44.627Z,0
2018-06-08T01:51:45.351Z,0
2018-06-08T01:52:45.924Z,0
2018-06-08T01:53:46.546Z,0
2018-06-08T01:54:47.118Z,0
2018-06-08T01:55:47.741Z,0
2018-06-08T01:56:48.316Z,0
2018-06-08T01:57:48.889Z,0
2018-06-08T01:58:49.460Z,0
2018-06-08T01:59:50.035Z,0
2018-06-08T02:00:50.644Z,0
2018-06-08T02:01:51.180Z,0
2018-06-08T02:02:51.754Z,0
2018-06-08T02:03:52.328Z,0
2018-06-08T02:04:52.902Z,0
2018-06-08T02:05:53.475Z,0
2018-06-08T02:06:54.047Z,0
2018-06-08T02:07:54.624Z,0
2018-06-08T02:08:55.238Z,0
2018-06-08T02:09:55.859Z,0
2018-06-08T02:10:56.433Z,0
2018-06-08T02:11:57.055Z,0
2018-06-08T02:12:57.679Z,0
2018-06-08T02:13:58.254Z,0
2018-06-08T02:14:58.827Z,0
2018-06-08T02:15:59.404Z,0
2018-06-08T02:16:59.973Z,0
2018-06-08T02:18:00.555Z,0
2018-06-08T02:19:01.127Z,0
2018-06-08T02:20:01.701Z,0
2018-06-08T02:21:02.273Z,0
2018-06-08T02:22:02.847Z,0
2018-06-08T02:23:03.421Z,0
2018-06-08T02:24:04.045Z,0
2018-06-08T02:25:04.622Z,0
2018-06-08T02:26:05.289Z,0
2018-06-08T02:27:05.860Z,0
2018-06-08T02:28:06.436Z,0
2018-06-08T02:29:07.053Z,0
2018-06-08T02:30:07.626Z,0
2018-06-08T02:31:08.199Z,0
2018-06-08T02:32:08.822Z,0
2018-06-08T02:33:09.396Z,0
2018-06-08T02:34:09.972Z,0
2018-06-08T02:35:10.595Z,0
2018-06-08T02:36:11.163Z,0
2018-06-08T02:37:11.738Z,0
2018-06-08T02:38:12.310Z,0
2018-06-08T02:39:12.884Z,0
2018-06-08T02:40:13.459Z,0
2018-06-08T02:41:14.030Z,0
2018-06-08T02:42:14.604Z,0
2018-06-08T02:43:15.178Z,0
2018-06-08T02:44:15.750Z,0
2018-06-08T02:45:16.326Z,0
2018-06-08T02:46:16.898Z,0
2018-06-08T02:47:17.521Z,0
2018-06-08T02:48:18.145Z,0
2018-06-08T02:49:18.719Z,0
2018-06-08T02:50:19.334Z,0
2018-06-08T02:51:19.908Z,0
2018-06-08T02:52:20.481Z,0
2018-06-08T02:53:21.109Z,0
2018-06-08T02:54:21.719Z,0
2018-06-08T02:55:22.342Z,0
2018-06-08T02:56:22.917Z,0
2018-06-08T02:57:23.489Z,0
2018-06-08T02:58:24.066Z,0
2018-06-08T02:59:24.637Z,0
2018-06-08T03:00:25.252Z,0
2018-06-08T03:01:25.875Z,0
2018-06-08T03:02:26.449Z,0
2018-06-08T03:03:27.072Z,0
2018-06-08T03:04:27.648Z,0
2018-06-08T03:05:28.363Z,0
2018-06-08T03:06:28.836Z,0
2018-06-08T03:07:29.458Z,0
2018-06-08T03:08:30.033Z,0
2018-06-08T03:09:30.608Z,0
2018-06-08T03:10:31.177Z,0
2018-06-08T03:11:31.749Z,0
2018-06-08T03:12:32.323Z,0
2018-06-08T03:13:32.945Z,0
2018-06-08T03:14:33.517Z,0
2018-06-08T03:15:34.091Z,0
2018-06-08T03:16:34.664Z,0
2018-06-08T03:17:35.238Z,0
2018-06-08T03:18:35.862Z,0
2018-06-08T03:19:36.436Z,0
2018-06-08T03:20:37.057Z,0
2018-06-08T03:21:37.627Z,0
2018-06-08T03:22:38.202Z,0
2018-06-08T03:23:38.783Z,0
2018-06-08T03:24:39.403Z,0
2018-06-08T03:25:39.971Z,0
2018-06-08T03:26:40.545Z,0
2018-06-08T03:27:41.119Z,0
2018-06-08T03:28:41.692Z,0
2018-06-08T03:29:42.265Z,0
2018-06-08T03:30:42.840Z,0
2018-06-08T03:31:43.413Z,0
2018-06-08T03:32:43.986Z,0
2018-06-08T03:33:44.557Z,0
2018-06-08T03:34:45.131Z,0
2018-06-08T03:35:45.703Z,0
2018-06-08T03:36:46.370Z,0
2018-06-08T03:37:46.940Z,0
2018-06-08T03:38:47.564Z,0
2018-06-08T03:39:48.136Z,0
2018-06-08T03:40:48.761Z,0
2018-06-08T03:41:49.332Z,0
2018-06-08T03:42:49.907Z,0
2018-06-08T03:43:50.480Z,0
2018-06-08T03:44:51.050Z,0
2018-06-08T03:45:51.624Z,0
2018-06-08T03:46:52.196Z,0
2018-06-08T03:47:52.768Z,0
2018-06-08T03:48:53.408Z,0
2018-06-08T03:49:54.008Z,0
2018-06-08T03:50:54.581Z,0
2018-06-08T03:51:55.156Z,0
2018-06-08T03:52:55.727Z,0
2018-06-08T03:53:56.301Z,0
2018-06-08T03:54:56.925Z,0
2018-06-08T03:55:57.576Z,0
2018-06-08T03:56:58.161Z,0
2018-06-08T03:57:58.785Z,0
2018-06-08T03:58:59.354Z,0
2018-06-08T03:59:59.926Z,0
2018-06-08T04:01:00.502Z,0
2018-06-08T04:02:01.075Z,0
2018-06-08T04:03:01.649Z,0
2018-06-08T04:04:02.221Z,0
2018-06-08T04:05:02.838Z,0
2018-06-08T04:06:03.409Z,0
2018-06-08T04:07:03.983Z,0
2018-06-08T04:08:04.556Z,0
2018-06-08T04:09:05.128Z,0
2018-06-08T04:10:05.705Z,0
2018-06-08T04:11:06.314Z,0
2018-06-08T04:12:06.887Z,0
2018-06-08T04:13:07.509Z,0
2018-06-08T04:14:08.133Z,0
2018-06-08T04:15:08.705Z,0
2018-06-08T04:16:09.276Z,0
2018-06-08T04:17:09.850Z,0
2018-06-08T04:18:10.421Z,0
2018-06-08T04:19:10.993Z,0
2018-06-08T04:20:11.569Z,0
2018-06-08T04:21:12.142Z,0
2018-06-08T04:22:12.765Z,0
2018-06-08T04:23:13.337Z,0
2018-06-08T04:24:13.909Z,0
2018-06-08T04:25:14.484Z,0
2018-06-08T04:26:15.057Z,0
2018-06-08T04:27:15.628Z,0
2018-06-08T04:28:16.202Z,0
2018-06-08T04:29:16.826Z,0
2018-06-08T04:30:17.402Z,0
2018-06-08T04:31:18.016Z,0
2018-06-08T04:32:18.589Z,0
2018-06-08T04:33:19.163Z,0
2018-06-08T04:34:19.736Z,0
2018-06-08T04:35:20.309Z,0
2018-06-08T04:36:20.930Z,0
2018-06-08T04:37:21.553Z,0
2018-06-08T04:38:22.130Z,0
2018-06-08T04:39:22.703Z,0
2018-06-08T04:40:23.278Z,0
2018-06-08T04:41:23.851Z,0
2018-06-08T04:42:24.424Z,0
2018-06-08T04:43:24.997Z,0
2018-06-08T04:44:25.569Z,0
2018-06-08T04:45:26.141Z,0
2018-06-08T04:46:26.714Z,0
2018-06-08T04:47:27.336Z,0
2018-06-08T04:48:27.911Z,0
2018-06-08T04:49:28.485Z,0
2018-06-08T04:50:29.057Z,0
2018-06-08T04:51:29.632Z,0
2018-06-08T04:52:30.258Z,0
2018-06-08T04:53:30.829Z,0
2018-06-08T04:54:31.403Z,0
2018-06-08T04:55:31.976Z,0
2018-06-08T04:56:32.599Z,0
2018-06-08T04:57:33.222Z,0
2018-06-08T04:58:33.794Z,0
2018-06-08T04:59:34.366Z,0
2018-06-08T05:00:34.941Z,0
2018-06-08T05:01:35.563Z,0
2018-06-08T05:02:36.136Z,0
2018-06-08T05:03:36.709Z,0
2018-06-08T05:04:37.330Z,0
2018-06-08T05:05:37.907Z,0
2018-06-08T05:06:38.479Z,0
2018-06-08T05:07:39.049Z,0
2018-06-08T05:08:39.624Z,0
2018-06-08T05:09:40.251Z,0
2018-06-08T05:10:40.823Z,0
2018-06-08T05:11:41.396Z,0
2018-06-08T05:12:41.968Z,0
2018-06-08T05:13:42.542Z,0
2018-06-08T05:14:43.115Z,0
2018-06-08T05:15:43.689Z,0
2018-06-08T05:16:44.265Z,0
2018-06-08T05:17:44.928Z,0
2018-06-08T05:18:45.503Z,0
2018-06-08T05:19:46.076Z,0
2018-06-08T05:20:46.648Z,0
2018-06-08T05:21:47.220Z,0
2018-06-08T05:22:47.795Z,0
2018-06-08T05:23:48.371Z,0
2018-06-08T05:24:48.994Z,0
2018-06-08T05:25:49.569Z,0
2018-06-08T05:26:50.192Z,0
2018-06-08T05:27:50.766Z,0
2018-06-08T05:28:51.337Z,0
2018-06-08T05:29:51.908Z,0
2018-06-08T05:30:52.581Z,0
2018-06-08T05:31:53.155Z,0
2018-06-08T05:32:53.778Z,0
2018-06-08T05:33:54.351Z,0
2018-06-08T05:34:54.922Z,0
2018-06-08T05:35:55.595Z,0
2018-06-08T05:36:56.170Z,0
2018-06-08T05:37:56.742Z,0
2018-06-08T05:38:57.315Z,0
2018-06-08T05:39:57.889Z,0
2018-06-08T05:40:58.462Z,0
2018-06-08T05:41:59.035Z,0
2018-06-08T05:42:59.609Z,0
2018-06-08T05:44:00.183Z,0
2018-06-08T05:45:00.755Z,0
2018-06-08T05:46:01.379Z,0
2018-06-08T05:47:01.951Z,0
2018-06-08T05:48:02.620Z,0
2018-06-08T05:49:03.192Z,0
2018-06-08T05:50:03.765Z,0
2018-06-08T05:51:04.335Z,0
2018-06-08T05:52:04.907Z,0
2018-06-08T05:53:05.482Z,0
2018-06-08T05:54:06.056Z,0
2018-06-08T05:55:06.629Z,0
2018-06-08T05:56:07.208Z,0
2018-06-08T05:57:07.823Z,0
2018-06-08T05:58:08.393Z,0
2018-06-08T05:59:08.964Z,0
2018-06-08T06:00:09.536Z,0
2018-06-08T06:01:10.224Z,0
2018-06-08T06:02:10.819Z,0
2018-06-08T06:03:11.390Z,0
2018-06-08T06:04:11.968Z,0
2018-06-08T06:05:12.587Z,0
2018-06-08T06:06:13.162Z,0
2018-06-08T06:07:13.735Z,0
2018-06-08T06:08:14.360Z,0
2018-06-08T06:09:14.883Z,0
2018-06-08T06:10:15.454Z,0
2018-06-08T06:11:16.027Z,0
2018-06-08T06:12:16.604Z,0
2018-06-08T06:13:17.212Z,0
2018-06-08T06:14:17.786Z,0
2018-06-08T06:15:18.358Z,0
2018-06-08T06:16:18.981Z,0
2018-06-08T06:17:19.555Z,0
2018-06-08T06:18:20.131Z,0
2018-06-08T06:19:20.703Z,0
2018-06-08T06:20:21.325Z,0
2018-06-08T06:21:21.948Z,0
2018-06-08T06:22:22.571Z,0
2018-06-08T06:23:23.142Z,0
2018-06-08T06:24:23.716Z,0
2018-06-08T06:25:24.290Z,0
2018-06-08T06:26:24.865Z,0
2018-06-08T06:27:25.438Z,0
2018-06-08T06:28:26.053Z,0
2018-06-08T06:29:26.627Z,0
2018-06-08T06:30:27.204Z,0
2018-06-08T06:31:27.816Z,0
2018-06-08T06:32:28.390Z,0
2018-06-08T06:33:28.961Z,0
2018-06-08T06:34:29.533Z,0
2018-06-08T06:35:30.107Z,0
2018-06-08T06:36:30.829Z,0
2018-06-08T06:37:31.456Z,0
2018-06-08T06:38:32.026Z,0
2018-06-08T06:39:32.632Z,0
2018-06-08T06:40:33.369Z,0
2018-06-08T06:41:33.941Z,0
2018-06-08T06:42:34.516Z,0
2018-06-08T06:43:35.088Z,0
2018-06-08T06:44:35.660Z,0
2018-06-08T06:45:36.236Z,0
2018-06-08T06:46:36.809Z,0
2018-06-08T06:47:37.381Z,0
2018-06-08T06:48:37.954Z,0
2018-06-08T06:49:38.525Z,0
2018-06-08T06:50:39.101Z,0
2018-06-08T06:51:39.673Z,0
2018-06-08T06:52:40.294Z,0
2018-06-08T06:53:40.870Z,0
2018-06-08T06:54:41.443Z,0
2018-06-08T06:55:42.165Z,0
2018-06-08T06:56:42.738Z,0
2018-06-08T06:57:43.312Z,0
2018-06-08T06:58:43.935Z,0
2018-06-08T06:59:44.509Z,0
2018-06-08T07:00:45.083Z,0
2018-06-08T07:01:45.655Z,0
2018-06-08T07:02:46.228Z,0
2018-06-08T07:03:46.800Z,0
2018-06-08T07:04:47.374Z,0
2018-06-08T07:05:47.947Z,0
2018-06-08T07:06:48.524Z,0
2018-06-08T07:07:49.143Z,0
2018-06-08T07:08:49.801Z,0
2018-06-08T07:09:50.372Z,0
2018-06-08T07:10:50.946Z,0
2018-06-08T07:11:51.570Z,0
2018-06-08T07:12:52.143Z,0
2018-06-08T07:13:52.715Z,0
2018-06-08T07:14:53.338Z,0
2018-06-08T07:15:53.911Z,0
2018-06-08T07:16:54.482Z,0
2018-06-08T07:17:55.057Z,0
2018-06-08T07:18:55.629Z,0
2018-06-08T07:19:56.201Z,0
2018-06-08T07:20:56.776Z,0
2018-06-08T07:21:57.350Z,0
2018-06-08T07:22:57.923Z,0
2018-06-08T07:24:03.549Z,0
2018-06-08T07:25:04.125Z,0
2018-06-08T07:26:04.746Z,0
2018-06-08T07:27:05.320Z,0
2018-06-08T07:28:05.892Z,0
2018-06-08T07:29:06.465Z,0
2018-06-08T07:30:07.041Z,0
2018-06-08T07:31:07.667Z,0
2018-06-08T07:32:08.239Z,0
2018-06-08T07:33:08.864Z,0
2018-06-08T07:34:09.479Z,0
2018-06-08T07:35:10.056Z,0
2018-06-08T07:36:10.622Z,4
2018-06-08T07:37:11.197Z,4
2018-06-08T07:38:11.770Z,4
2018-06-08T07:39:12.341Z,4
2018-06-08T07:40:12.942Z,4
2018-06-08T07:41:13.600Z,0
2018-06-08T07:42:14.119Z,4
2018-06-08T07:43:14.792Z,8
2018-06-08T07:44:15.307Z,12
2018-06-08T07:45:15.884Z,12
2018-06-08T07:46:16.454Z,12
2018-06-08T07:47:17.028Z,8
2018-06-08T07:48:17.650Z,8
2018-06-08T07:49:18.223Z,8
2018-06-08T07:50:18.796Z,8
2018-06-08T07:51:19.370Z,8
2018-06-08T07:52:19.942Z,8
2018-06-08T07:53:20.564Z,8
2018-06-08T07:54:21.137Z,8
2018-06-08T07:55:21.711Z,8
2018-06-08T07:56:22.289Z,12
2018-06-08T07:57:22.859Z,8
2018-06-08T07:58:23.432Z,8
2018-06-08T07:59:24.054Z,8
2018-06-08T08:00:24.629Z,8
2018-06-08T08:01:25.204Z,12
2018-06-08T08:02:25.775Z,8
2018-06-08T08:03:26.349Z,8
2018-06-08T08:04:26.971Z,8
2018-06-08T08:05:27.546Z,8
2018-06-08T08:06:28.120Z,8
2018-06-08T08:07:28.692Z,12
2018-06-08T08:08:29.268Z,12
2018-06-08T08:09:29.891Z,12
2018-06-08T08:10:30.465Z,12
2018-06-08T08:11:31.037Z,8
2018-06-08T08:12:31.611Z,12
2018-06-08T08:13:32.184Z,12
2018-06-08T08:14:32.755Z,8
2018-06-08T08:15:33.379Z,8
2018-06-08T08:16:33.952Z,8
2018-06-08T08:17:34.525Z,12
2018-06-08T08:18:35.099Z,8
2018-06-08T08:19:35.673Z,12
2018-06-08T08:20:36.253Z,12
2018-06-08T08:21:36.879Z,16
2018-06-08T08:22:37.454Z,20
2018-06-08T08:23:38.030Z,16
2018-06-08T08:24:38.605Z,16
2018-06-08T08:25:39.178Z,12
2018-06-08T08:26:39.750Z,12
2018-06-08T08:27:40.325Z,16
2018-06-08T08:28:40.898Z,12
2018-06-08T08:29:41.523Z,12
2018-06-08T08:30:42.096Z,8
2018-06-08T08:31:42.668Z,8
2018-06-08T08:32:43.247Z,12
2018-06-08T08:33:43.817Z,12
2018-06-08T08:34:44.391Z,12
2018-06-08T08:35:45.017Z,12
2018-06-08T08:36:45.638Z,8
2018-06-08T08:37:46.251Z,8
2018-06-08T08:38:46.825Z,8
2018-06-08T08:39:47.489Z,8
2018-06-08T08:40:48.061Z,8
2018-06-08T08:41:48.632Z,8
2018-06-08T08:42:49.207Z,4
2018-06-08T08:43:49.780Z,4
2018-06-08T08:44:50.353Z,8
2018-06-08T08:45:50.978Z,4
2018-06-08T08:46:51.549Z,8
2018-06-08T08:47:52.123Z,8
2018-06-08T08:48:52.695Z,8
2018-06-08T08:49:53.266Z,8
2018-06-08T08:50:53.841Z,4
2018-06-08T08:51:54.423Z,4
2018-06-08T08:52:54.994Z,8
2018-06-08T08:53:55.611Z,8
2018-06-08T08:54:56.233Z,8
2018-06-08T08:55:56.809Z,8
2018-06-08T08:56:57.422Z,8
2018-06-08T08:57:57.955Z,4
2018-06-08T08:58:58.529Z,4
2018-06-08T08:59:59.152Z,4
2018-06-08T09:00:59.728Z,4
2018-06-08T09:02:00.302Z,4
2018-06-08T09:03:00.920Z,4
2018-06-08T09:04:01.490Z,4
2018-06-08T09:05:02.065Z,4
2018-06-08T09:06:02.641Z,4
2018-06-08T09:07:03.303Z,4
2018-06-08T09:08:03.876Z,4
2018-06-08T09:09:04.450Z,4
2018-06-08T09:10:05.024Z,4
2018-06-08T09:11:05.598Z,4
2018-06-08T09:12:06.172Z,8
2018-06-08T09:13:06.742Z,4
2018-06-08T09:14:07.317Z,8
2018-06-08T09:15:07.940Z,8
2018-06-08T09:16:08.564Z,8
2018-06-08T09:17:09.136Z,8
2018-06-08T09:18:09.707Z,8
2018-06-08T09:19:10.283Z,8
2018-06-08T09:20:10.906Z,8
2018-06-08T09:21:11.430Z,8
2018-06-08T09:22:12.003Z,8
2018-06-08T09:23:12.619Z,8
2018-06-08T09:24:13.193Z,8
2018-06-08T09:25:13.764Z,8
2018-06-08T09:26:14.386Z,8
2018-06-08T09:27:14.967Z,8
2018-06-08T09:28:15.576Z,8
2018-06-08T09:29:16.149Z,8
2018-06-08T09:30:16.723Z,8
2018-06-08T09:31:17.302Z,4
2018-06-08T09:32:17.871Z,4
2018-06-08T09:33:18.443Z,8
2018-06-08T09:34:19.014Z,8
2018-06-08T09:35:19.638Z,8
2018-06-08T09:36:20.262Z,8
2018-06-08T09:37:20.836Z,8
2018-06-08T09:38:21.409Z,8
2018-06-08T09:39:21.981Z,8
2018-06-08T09:40:22.556Z,8
2018-06-08T09:41:23.128Z,8
2018-06-08T09:42:23.700Z,8
2018-06-08T09:43:24.275Z,8
2018-06-08T09:44:24.864Z,8
2018-06-08T09:45:25.461Z,4
2018-06-08T09:46:26.130Z,4
2018-06-08T09:47:26.694Z,8
2018-06-08T09:48:27.272Z,8
2018-06-08T09:49:27.842Z,8
2018-06-08T09:50:28.414Z,8
2018-06-08T09:51:28.988Z,8
2018-06-08T09:52:29.561Z,8
2018-06-08T09:53:30.134Z,8
2018-06-08T09:54:30.763Z,12
2018-06-08T09:55:31.336Z,8
2018-06-08T09:56:31.963Z,12
2018-06-08T09:57:32.536Z,12
2018-06-08T09:58:33.160Z,8
2018-06-08T09:59:33.734Z,12
2018-06-08T10:00:34.308Z,12
2018-06-08T10:01:34.882Z,12
2018-06-08T10:02:35.456Z,12
2018-06-08T10:03:36.032Z,12
2018-06-08T10:04:36.607Z,16
2018-06-08T10:05:37.231Z,12
2018-06-08T10:06:37.805Z,12
2018-06-08T10:07:38.379Z,12
2018-06-08T10:08:38.954Z,12
2018-06-08T10:09:39.527Z,12
2018-06-08T10:10:40.103Z,16
2018-06-08T10:11:40.726Z,16
2018-06-08T10:12:41.301Z,20
2018-06-08T10:13:41.872Z,16
2018-06-08T10:14:42.496Z,16
2018-06-08T10:15:43.072Z,16
2018-06-08T10:16:43.719Z,20
2018-06-08T10:17:44.267Z,20
2018-06-08T10:18:44.841Z,20
2018-06-08T10:19:45.413Z,24
2018-06-08T10:20:45.989Z,24
2018-06-08T10:21:46.562Z,20
2018-06-08T10:22:47.180Z,28
2018-06-08T10:23:47.755Z,20
2018-06-08T10:24:48.378Z,20
2018-06-08T10:25:48.953Z,28
2018-06-08T10:26:49.573Z,20
2018-06-08T10:27:50.188Z,20
2018-06-08T10:28:50.766Z,24
2018-06-08T10:29:51.380Z,24
2018-06-08T10:30:51.954Z,20
2018-06-08T10:31:52.529Z,20
2018-06-08T10:32:53.253Z,20
2018-06-08T10:33:53.828Z,20
2018-06-08T10:34:54.401Z,16
2018-06-08T10:35:54.973Z,16
2018-06-08T10:36:55.554Z,20
2018-06-08T10:37:56.121Z,16
2018-06-08T10:38:56.693Z,20
2018-06-08T10:39:57.272Z,20
2018-06-08T10:40:57.885Z,20
2018-06-08T10:41:58.509Z,16
2018-06-08T10:42:59.132Z,16
2018-06-08T10:43:59.708Z,16
2018-06-08T10:45:00.326Z,16
2018-06-08T10:46:00.900Z,20
2018-06-08T10:47:01.477Z,16
2018-06-08T10:48:02.052Z,20
2018-06-08T10:49:02.625Z,16
2018-06-08T10:50:03.349Z,20
2018-06-08T10:51:03.925Z,24
2018-06-08T10:52:04.499Z,20
2018-06-08T10:53:05.075Z,32
2018-06-08T10:54:05.698Z,24
2018-06-08T10:55:06.273Z,24
2018-06-08T10:56:06.846Z,24
2018-06-08T10:57:07.420Z,24
2018-06-08T10:58:07.995Z,20
2018-06-08T10:59:08.571Z,20
2018-06-08T11:00:09.142Z,20
2018-06-08T11:01:09.717Z,20
2018-06-08T11:02:10.341Z,28
2018-06-08T11:03:10.919Z,20
2018-06-08T11:04:11.535Z,20
2018-06-08T11:05:12.112Z,20
2018-06-08T11:06:12.738Z,20
2018-06-08T11:07:13.319Z,20
2018-06-08T11:08:13.888Z,20
2018-06-08T11:09:14.459Z,20
2018-06-08T11:10:15.085Z,20
2018-06-08T11:11:15.657Z,24
2018-06-08T11:12:16.234Z,20
2018-06-08T11:13:16.808Z,20
2018-06-08T11:14:17.424Z,20
2018-06-08T11:15:18.000Z,20
2018-06-08T11:16:18.573Z,32
2018-06-08T11:17:19.149Z,32
2018-06-08T11:18:19.726Z,28
2018-06-08T11:19:20.341Z,28
2018-06-08T11:20:20.966Z,20
2018-06-08T11:21:21.541Z,24
2018-06-08T11:22:22.116Z,20
2018-06-08T11:23:22.690Z,24
2018-06-08T11:24:23.265Z,20
2018-06-08T11:25:23.842Z,20
2018-06-08T11:26:24.456Z,20
2018-06-08T11:27:25.082Z,24
2018-06-08T11:28:25.658Z,20
2018-06-08T11:29:26.232Z,20
2018-06-08T11:30:26.904Z,12
2018-06-08T11:31:27.530Z,16
2018-06-08T11:32:28.104Z,16
2018-06-08T11:33:28.680Z,16
2018-06-08T11:34:29.358Z,12
2018-06-08T11:35:29.933Z,16
2018-06-08T11:36:30.506Z,12
2018-06-08T11:37:31.083Z,20
2018-06-08T11:38:31.657Z,20
2018-06-08T11:39:32.305Z,20
2018-06-08T11:40:32.861Z,20
2018-06-08T11:41:33.432Z,24
2018-06-08T11:42:34.009Z,24
2018-06-08T11:43:34.588Z,24
2018-06-08T11:44:35.166Z,20
2018-06-08T11:45:35.733Z,24
2018-06-08T11:46:36.458Z,24
2018-06-08T11:47:37.034Z,36
2018-06-08T11:48:37.608Z,28
2018-06-08T11:49:38.183Z,28
2018-06-08T11:50:38.757Z,28
2018-06-08T11:51:39.332Z,40
2018-06-08T11:52:39.956Z,44
2018-06-08T11:53:40.533Z,32
2018-06-08T11:54:41.107Z,28
2018-06-08T11:55:41.684Z,28
2018-06-08T11:56:42.256Z,32
2018-06-08T11:57:42.829Z,32
2018-06-08T11:58:43.404Z,32
2018-06-08T11:59:43.979Z,44
2018-06-08T12:00:44.552Z,40
2018-06-08T12:01:45.179Z,40
2018-06-08T12:02:45.751Z,36
2018-06-08T12:03:46.327Z,48
2018-06-08T12:04:46.905Z,52
2018-06-08T12:05:47.521Z,44
2018-06-08T12:06:48.144Z,40
2018-06-08T12:07:48.729Z,44
2018-06-08T12:08:49.297Z,56
2018-06-08T12:09:49.874Z,56
2018-06-08T12:10:50.447Z,48
2018-06-08T12:11:51.024Z,52
2018-06-08T12:12:51.594Z,52
2018-06-08T12:13:52.220Z,52
2018-06-08T12:14:52.793Z,56
2018-06-08T12:15:53.371Z,56
2018-06-08T12:16:53.945Z,36
2018-06-08T12:17:54.571Z,28
2018-06-08T12:18:55.146Z,32
2018-06-08T12:19:55.722Z,56
2018-06-08T12:20:56.297Z,40
2018-06-08T12:21:56.920Z,32
2018-06-08T12:22:57.494Z,36
2018-06-08T12:23:58.072Z,32
2018-06-08T12:24:58.644Z,40
2018-06-08T12:25:59.218Z,40
2018-06-08T12:26:59.790Z,52
2018-06-08T12:28:00.366Z,52
2018-06-08T12:29:00.940Z,32
2018-06-08T12:30:01.515Z,32
2018-06-08T12:31:02.131Z,28
2018-06-08T12:32:02.711Z,32
2018-06-08T12:33:03.284Z,32
2018-06-08T12:34:03.909Z,32
2018-06-08T12:35:04.527Z,32
2018-06-08T12:36:05.098Z,36
2018-06-08T12:37:05.670Z,36
2018-06-08T12:38:06.295Z,32
2018-06-08T12:39:06.870Z,32
2018-06-08T12:40:07.448Z,32
2018-06-08T12:41:08.063Z,56
2018-06-08T12:42:08.638Z,36
2018-06-08T12:43:09.216Z,36
2018-06-08T12:44:09.830Z,36
2018-06-08T12:45:10.457Z,24
2018-06-08T12:46:11.031Z,28
2018-06-08T12:47:11.607Z,32
2018-06-08T12:48:12.181Z,32
2018-06-08T12:49:12.956Z,32
2018-06-08T12:50:13.530Z,32
2018-06-08T12:51:14.105Z,24
2018-06-08T12:52:14.680Z,24
2018-06-08T12:53:15.257Z,24
2018-06-08T12:54:15.836Z,24
2018-06-08T12:55:16.413Z,44
2018-06-08T12:56:16.982Z,56
2018-06-08T12:57:17.597Z,60
2018-06-08T12:58:18.177Z,64
2018-06-08T12:59:18.753Z,60
2018-06-08T13:00:19.328Z,64
2018-06-08T13:01:19.900Z,56
2018-06-08T13:02:20.525Z,52
2018-06-08T13:03:21.101Z,60
2018-06-08T13:04:21.724Z,56
2018-06-08T13:05:22.302Z,40
2018-06-08T13:06:22.876Z,36
2018-06-08T13:07:23.500Z,44
2018-06-08T13:08:24.074Z,40
2018-06-08T13:09:24.648Z,44
2018-06-08T13:10:25.226Z,40
2018-06-08T13:11:25.806Z,36
2018-06-08T13:12:26.376Z,32
2018-06-08T13:13:26.950Z,28
2018-06-08T13:14:27.524Z,32
2018-06-08T13:15:28.100Z,32
2018-06-08T13:16:28.675Z,32
2018-06-08T13:17:29.255Z,28
2018-06-08T13:18:29.825Z,28
2018-06-08T13:19:30.402Z,28
2018-06-08T13:20:31.019Z,28
2018-06-08T13:21:31.645Z,28
2018-06-08T13:22:32.218Z,24
2018-06-08T13:23:32.843Z,24
2018-06-08T13:24:33.419Z,24
2018-06-08T13:25:33.995Z,20
2018-06-08T13:26:34.568Z,20
2018-06-08T13:27:35.193Z,20
2018-06-08T13:28:35.767Z,20
2018-06-08T13:29:36.350Z,16
2018-06-08T13:30:36.922Z,20
2018-06-08T13:31:42.551Z,20
2018-06-08T13:32:43.124Z,16
2018-06-08T13:33:43.700Z,16
2018-06-08T13:34:44.272Z,16
2018-06-08T13:35:44.850Z,8
2018-06-08T13:36:45.424Z,12
2018-06-08T13:37:46.049Z,8
2018-06-08T13:38:46.713Z,8
2018-06-08T13:39:47.285Z,8
2018-06-08T13:40:47.911Z,8
2018-06-08T13:41:48.482Z,8
2018-06-08T13:42:49.057Z,4
2018-06-08T13:43:49.632Z,8
2018-06-08T13:44:50.304Z,4
2018-06-08T13:45:50.880Z,8
2018-06-08T13:46:51.452Z,8
2018-06-08T13:47:52.025Z,4
2018-06-08T13:48:52.598Z,8
2018-06-08T13:49:53.173Z,8
2018-06-08T13:50:53.745Z,4
2018-06-08T13:51:54.322Z,12
2018-06-08T13:52:54.905Z,12
2018-06-08T13:53:55.480Z,16
2018-06-08T13:54:56.058Z,12
2018-06-08T13:55:56.631Z,16
2018-06-08T13:56:57.207Z,16
2018-06-08T13:57:57.831Z,12
2018-06-08T13:58:58.406Z,8
2018-06-08T13:59:58.979Z,12
2018-06-08T14:00:59.553Z,8
2018-06-08T14:02:00.198Z,12
2018-06-08T14:03:00.754Z,12
2018-06-08T14:04:01.327Z,20
2018-06-08T14:05:01.903Z,20
2018-06-08T14:06:02.480Z,16
2018-06-08T14:07:03.107Z,20
2018-06-08T14:08:03.680Z,20
2018-06-08T14:09:04.298Z,20
2018-06-08T14:10:04.871Z,12
2018-06-08T14:11:05.446Z,12
2018-06-08T14:12:06.020Z,12
2018-06-08T14:13:06.594Z,12
2018-06-08T14:14:07.169Z,12
2018-06-08T14:15:07.744Z,16
2018-06-08T14:16:08.317Z,12
2018-06-08T14:17:08.893Z,16
2018-06-08T14:18:09.519Z,16
2018-06-08T14:19:10.093Z,20
2018-06-08T14:20:10.718Z,20
2018-06-08T14:21:11.293Z,20
2018-06-08T14:22:11.868Z,24
2018-06-08T14:23:12.483Z,32
2018-06-08T14:24:13.059Z,28
2018-06-08T14:25:13.635Z,28
2018-06-08T14:26:14.207Z,24
2018-06-08T14:27:14.782Z,20
2018-06-08T14:28:15.355Z,24
2018-06-08T14:29:15.934Z,32
2018-06-08T14:30:16.512Z,28
2018-06-08T14:31:17.081Z,32
2018-06-08T14:32:17.657Z,28
2018-06-08T14:33:18.283Z,28
2018-06-08T14:34:18.859Z,24
2018-06-08T14:35:19.484Z,40
2018-06-08T14:36:20.064Z,44
2018-06-08T14:37:20.635Z,32
2018-06-08T14:38:21.264Z,28
2018-06-08T14:39:21.835Z,32
2018-06-08T14:40:22.408Z,32
2018-06-08T14:41:22.983Z,32
2018-06-08T14:42:23.559Z,28
2018-06-08T14:43:24.178Z,32
2018-06-08T14:44:24.752Z,40
2018-06-08T14:45:25.327Z,16